createdAt,value
2019-05-18T00:01:23.034Z,12.58
2019-05-18T00:03:53.353Z,12.63
2019-05-18T00:06:23.942Z,12.71
2019-05-18T00:08:54.455Z,12.76
2019-05-18T00:11:24.943Z,12.64
2019-05-18T00:13:57.178Z,12.54
2019-05-18T00:16:27.819Z,12.46
2019-05-18T00:18:58.116Z,12.39
2019-05-18T00:21:28.690Z,12.33
2019-05-18T00:23:59.022Z,12.28
2019-05-18T00:26:29.249Z,12.23
2019-05-18T00:28:59.827Z,12.23
2019-05-18T00:31:30.170Z,12.25
2019-05-18T00:34:00.836Z,12.19
2019-05-18T00:36:31.819Z,12.16
2019-05-18T00:39:02.677Z,12.14
2019-05-18T00:41:33.053Z,12.13
2019-05-18T00:44:03.378Z,12.10
2019-05-18T00:46:33.660Z,12.09
2019-05-18T00:49:04.443Z,12.05
2019-05-18T00:51:34.739Z,12.01
2019-05-18T00:54:05.316Z,11.99
2019-05-18T00:56:36.034Z,11.96
2019-05-18T00:59:06.658Z,11.94
2019-05-18T01:01:37.299Z,11.89
2019-05-18T01:04:07.580Z,11.86
2019-05-18T01:06:37.946Z,11.82
2019-05-18T01:09:08.753Z,11.79
2019-05-18T01:11:39.041Z,11.77
2019-05-18T01:14:09.750Z,11.75
2019-05-18T01:16:40.630Z,11.74
2019-05-18T01:19:11.322Z,11.73
2019-05-18T01:21:41.974Z,11.69
2019-05-18T01:24:12.624Z,11.66
2019-05-18T01:26:43.225Z,11.66
2019-05-18T01:29:13.490Z,11.63
2019-05-18T01:31:43.724Z,11.66
2019-05-18T01:34:13.966Z,11.67
2019-05-18T01:36:44.754Z,11.63
2019-05-18T01:39:15.081Z,11.63
2019-05-18T01:41:45.661Z,11.59
2019-05-18T01:44:16.003Z,11.55
2019-05-18T01:46:46.583Z,11.54
2019-05-18T01:49:17.274Z,11.51
2019-05-18T01:51:49.099Z,11.48
2019-05-18T01:54:19.516Z,11.44
2019-05-18T01:56:50.266Z,11.47
2019-05-18T01:59:20.970Z,11.49
2019-05-18T02:01:51.647Z,11.49
2019-05-18T02:04:21.965Z,11.47
2019-05-18T02:06:52.540Z,11.45
2019-05-18T02:09:22.828Z,11.44
2019-05-18T02:11:54.478Z,11.53
2019-05-18T02:14:24.796Z,11.59
2019-05-18T02:16:55.024Z,11.56
2019-05-18T02:19:25.635Z,11.49
2019-05-18T02:21:56.289Z,11.42
2019-05-18T02:24:26.587Z,11.35
2019-05-18T02:26:57.179Z,11.31
2019-05-18T02:29:29.408Z,11.31
2019-05-18T02:31:59.700Z,11.28
2019-05-18T02:34:29.953Z,11.24
2019-05-18T02:37:00.556Z,11.34
2019-05-18T02:39:32.402Z,11.49
2019-05-18T02:42:03.035Z,11.59
2019-05-18T02:44:33.337Z,11.68
2019-05-18T02:47:04.739Z,11.74
2019-05-18T02:49:35.265Z,11.77
2019-05-18T02:52:05.889Z,11.83
2019-05-18T02:54:36.209Z,11.87
2019-05-18T02:57:06.785Z,11.94
2019-05-18T02:59:37.526Z,12.07
2019-05-18T03:02:08.295Z,12.14
2019-05-18T03:04:39.079Z,12.19
2019-05-18T03:07:09.752Z,12.27
2019-05-18T03:09:40.418Z,12.33
2019-05-18T03:12:10.740Z,12.38
2019-05-18T03:14:41.043Z,12.43
2019-05-18T03:17:11.637Z,12.54
2019-05-18T03:19:42.302Z,12.69
2019-05-18T03:22:12.980Z,12.77
2019-05-18T03:24:43.764Z,12.80
2019-05-18T03:27:14.409Z,12.80
2019-05-18T03:29:44.901Z,12.82
2019-05-18T03:32:15.497Z,12.89
2019-05-18T03:34:45.797Z,12.94
2019-05-18T03:37:16.432Z,13.02
2019-05-18T03:39:46.725Z,13.13
2019-05-18T03:42:16.982Z,13.27
2019-05-18T03:44:47.291Z,13.37
2019-05-18T03:47:17.887Z,13.50
2019-05-18T03:49:48.318Z,13.68
2019-05-18T03:52:18.545Z,13.82
2019-05-18T03:54:49.155Z,14.02
2019-05-18T03:57:19.870Z,14.20
2019-05-18T03:59:50.181Z,14.36
2019-05-18T04:02:20.740Z,14.50
2019-05-18T04:04:51.515Z,14.69
2019-05-18T04:07:22.122Z,14.83
2019-05-18T04:09:52.410Z,14.93
2019-05-18T04:12:23.032Z,15.02
2019-05-18T04:14:53.751Z,15.04
2019-05-18T04:17:24.062Z,15.06
2019-05-18T04:19:54.361Z,15.10
2019-05-18T04:22:24.886Z,15.12
2019-05-18T04:24:55.555Z,15.12
2019-05-18T04:27:26.200Z,15.18
2019-05-18T04:29:56.852Z,15.24
2019-05-18T04:32:27.082Z,15.43
2019-05-18T04:34:57.337Z,15.58
2019-05-18T04:37:27.926Z,15.81
2019-05-18T04:39:58.562Z,15.95
2019-05-18T04:42:29.235Z,16.07
2019-05-18T04:44:59.876Z,16.16
2019-05-18T04:47:30.202Z,16.22
2019-05-18T04:50:05.425Z,16.15
2019-05-18T04:52:32.716Z,16.11
2019-05-18T04:55:03.976Z,16.09
2019-05-18T04:57:34.627Z,15.99
2019-05-18T05:00:08.701Z,15.98
2019-05-18T05:02:38.989Z,15.97
2019-05-18T05:05:10.062Z,16.15
2019-05-18T05:07:40.314Z,16.12
2019-05-18T05:10:10.991Z,16.04
2019-05-18T05:12:41.703Z,15.96
2019-05-18T05:15:12.438Z,15.85
2019-05-18T05:17:42.803Z,15.75
2019-05-18T05:20:19.711Z,15.62
2019-05-18T05:22:46.522Z,15.58
2019-05-18T05:25:17.239Z,15.44
2019-05-18T05:27:47.547Z,15.07
2019-05-18T05:30:18.572Z,14.96
2019-05-18T05:32:49.230Z,14.97
2019-05-18T05:35:19.650Z,14.78
2019-05-18T05:37:50.254Z,14.67
2019-05-18T05:40:20.551Z,14.65
2019-05-18T05:42:51.998Z,14.58
2019-05-18T05:45:25.545Z,14.61
2019-05-18T05:47:55.885Z,14.59
2019-05-18T05:50:36.161Z,14.57
2019-05-18T05:53:00.042Z,14.52
2019-05-18T05:55:30.668Z,14.44
2019-05-18T05:58:01.322Z,14.44
2019-05-18T06:00:31.987Z,14.39
2019-05-18T06:03:02.330Z,14.44
2019-05-18T06:05:32.558Z,14.46
2019-05-18T06:08:02.823Z,14.66
2019-05-18T06:10:33.054Z,14.73
2019-05-18T06:13:03.666Z,14.75
2019-05-18T06:15:33.970Z,14.81
2019-05-18T06:18:04.367Z,14.83
2019-05-18T06:20:49.009Z,14.78
2019-05-18T06:23:06.915Z,14.78
2019-05-18T06:25:38.294Z,14.88
2019-05-18T06:28:08.773Z,15.05
2019-05-18T06:30:39.465Z,15.37
2019-05-18T06:33:10.107Z,15.49
2019-05-18T06:35:40.738Z,15.47
2019-05-18T06:38:11.039Z,15.55
2019-05-18T06:40:41.644Z,15.62
2019-05-18T06:43:12.322Z,15.74
2019-05-18T06:45:42.626Z,15.88
2019-05-18T06:48:12.907Z,16.03
2019-05-18T06:50:44.485Z,16.14
2019-05-18T06:53:14.806Z,16.19
2019-05-18T06:55:46.025Z,16.28
2019-05-18T06:58:16.912Z,16.25
2019-05-18T07:00:47.531Z,16.26
2019-05-18T07:03:19.071Z,16.38
2019-05-18T07:05:49.369Z,16.41
2019-05-18T07:08:19.626Z,16.42
2019-05-18T07:10:51.176Z,16.50
2019-05-18T07:13:21.619Z,16.34
2019-05-18T07:15:51.875Z,16.20
2019-05-18T07:18:22.182Z,16.14
2019-05-18T07:20:52.409Z,16.17
2019-05-18T07:43:10.055Z,15.85
2019-05-18T07:45:41.935Z,15.67
2019-05-18T07:48:12.205Z,15.56
2019-05-18T07:50:42.850Z,15.54
2019-05-18T07:53:13.324Z,15.38
2019-05-18T07:55:43.651Z,15.27
2019-05-18T07:58:14.075Z,15.08
2019-05-18T08:00:44.312Z,14.97
2019-05-18T08:03:14.564Z,14.88
2019-05-18T08:05:44.931Z,14.91
2019-05-18T08:08:15.198Z,15.07
2019-05-18T08:10:45.798Z,15.37
2019-05-18T08:13:16.170Z,15.88
2019-05-18T08:15:46.809Z,16.44
2019-05-18T08:18:17.120Z,17.01
2019-05-18T08:20:47.701Z,17.67
2019-05-18T08:23:18.378Z,18.22
2019-05-18T08:25:49.091Z,18.85
2019-05-18T08:28:19.393Z,19.39
2019-05-18T08:30:50.084Z,19.73
2019-05-18T08:33:20.713Z,19.95
2019-05-18T08:35:51.095Z,20.32
2019-05-18T08:38:21.320Z,20.22
2019-05-18T08:40:51.543Z,19.79
2019-05-18T08:43:22.140Z,19.47
2019-05-18T08:45:52.797Z,19.39
2019-05-18T08:48:23.445Z,19.04
2019-05-18T08:50:54.202Z,18.84
2019-05-18T08:53:24.844Z,18.68
2019-05-18T08:56:14.885Z,18.44
2019-05-18T08:58:45.777Z,18.23
2019-05-18T09:01:16.430Z,18.21
2019-05-18T09:03:46.743Z,18.15
2019-05-18T09:06:17.351Z,18.10
2019-05-18T09:08:48.169Z,17.90
2019-05-18T09:11:19.965Z,17.88
2019-05-18T09:13:50.716Z,17.98
2019-05-18T09:16:21.417Z,18.02
2019-05-18T09:18:52.089Z,18.14
2019-05-18T09:21:22.801Z,18.32
2019-05-18T09:23:53.080Z,18.63
2019-05-18T09:26:23.845Z,19.10
2019-05-18T09:28:54.444Z,20.15
2019-05-18T09:31:24.772Z,21.00
2019-05-18T09:33:55.414Z,20.87
2019-05-18T09:36:26.046Z,20.47
2019-05-18T09:38:56.414Z,19.99
2019-05-18T09:41:26.991Z,19.94
2019-05-18T09:43:57.661Z,20.00
2019-05-18T09:46:28.326Z,20.06
2019-05-18T09:48:58.615Z,20.19
2019-05-18T09:51:29.239Z,20.53
2019-05-18T09:53:59.574Z,20.73
2019-05-18T09:56:30.217Z,20.79
2019-05-18T09:59:00.947Z,20.94
2019-05-18T10:01:31.324Z,21.03
2019-05-18T10:04:01.631Z,22.00
2019-05-18T10:06:31.831Z,22.44
2019-05-18T10:09:02.602Z,22.54
2019-05-18T10:11:38.478Z,22.41
2019-05-18T10:14:07.368Z,23.10
2019-05-18T10:16:37.684Z,23.73
2019-05-18T10:19:08.378Z,23.84
2019-05-18T10:21:43.627Z,23.53
2019-05-18T10:24:12.930Z,23.19
2019-05-18T10:26:43.561Z,22.95
2019-05-18T10:29:15.055Z,23.17
2019-05-18T10:31:45.669Z,23.10
2019-05-18T10:34:17.157Z,23.13
2019-05-18T10:36:47.536Z,22.67
2019-05-18T10:39:17.847Z,22.43
2019-05-18T10:41:48.109Z,22.29
2019-05-18T10:44:18.756Z,22.20
2019-05-18T10:46:49.453Z,22.30
2019-05-18T10:49:21.302Z,22.59
2019-05-18T10:51:51.880Z,22.78
2019-05-18T10:54:22.171Z,23.08
2019-05-18T10:56:54.303Z,23.18
2019-05-18T10:59:24.951Z,23.24
2019-05-18T11:01:55.288Z,23.24
2019-05-18T11:04:25.546Z,23.44
2019-05-18T11:06:55.969Z,23.42
2019-05-18T11:09:27.441Z,23.36
2019-05-18T11:11:59.098Z,23.21
2019-05-18T11:14:29.788Z,23.05
2019-05-18T11:17:02.151Z,23.10
2019-05-18T11:19:32.785Z,23.37
2019-05-18T11:22:03.143Z,23.49
2019-05-18T11:24:34.906Z,23.64
2019-05-18T11:27:08.598Z,23.70
2019-05-18T11:29:40.060Z,23.93
2019-05-18T11:32:10.723Z,24.25
2019-05-18T11:34:41.132Z,24.71
2019-05-18T11:37:11.511Z,25.11
2019-05-18T11:39:41.741Z,25.49
2019-05-18T11:42:13.162Z,25.70
2019-05-18T11:44:43.737Z,25.68
2019-05-18T11:47:14.431Z,25.26
2019-05-18T11:49:45.316Z,25.19
2019-05-18T11:52:15.983Z,25.32
2019-05-18T11:54:46.751Z,25.79
2019-05-18T11:57:17.373Z,25.99
2019-05-18T11:59:47.712Z,26.07
2019-05-18T12:02:18.015Z,26.14
2019-05-18T12:04:48.918Z,26.41
2019-05-18T12:07:19.453Z,26.69
2019-05-18T12:09:50.067Z,26.96
2019-05-18T12:12:20.407Z,27.46
2019-05-18T12:14:51.224Z,27.71
2019-05-18T12:17:25.160Z,27.91
2019-05-18T12:19:55.825Z,28.11
2019-05-18T12:22:26.500Z,28.20
2019-05-18T12:24:57.234Z,28.35
2019-05-18T12:27:28.050Z,28.48
2019-05-18T12:29:58.357Z,28.62
2019-05-18T12:32:28.590Z,28.62
2019-05-18T12:34:58.832Z,28.55
2019-05-18T12:37:29.099Z,28.38
2019-05-18T12:39:59.494Z,28.07
2019-05-18T12:42:29.821Z,27.64
2019-05-18T12:45:00.029Z,27.45
2019-05-18T12:47:30.269Z,27.22
2019-05-18T12:50:00.832Z,27.01
2019-05-18T12:52:31.578Z,26.82
2019-05-18T12:55:01.897Z,26.69
2019-05-18T12:57:32.196Z,26.66
2019-05-18T13:00:02.834Z,26.79
2019-05-18T13:02:33.665Z,26.87
2019-05-18T13:05:05.476Z,26.95
2019-05-18T13:07:36.399Z,26.92
2019-05-18T13:10:14.152Z,27.06
2019-05-18T13:12:44.448Z,27.07
2019-05-18T13:15:16.691Z,26.98
2019-05-18T13:17:47.473Z,27.04
2019-05-18T13:20:19.426Z,26.83
2019-05-18T13:22:50.133Z,26.57
2019-05-18T13:25:21.483Z,26.40
2019-05-18T13:27:52.966Z,26.26
2019-05-18T13:30:24.165Z,26.05
2019-05-18T13:32:54.946Z,26.07
2019-05-18T13:35:25.695Z,26.09
2019-05-18T13:37:57.418Z,26.11
2019-05-18T13:40:28.756Z,26.21
2019-05-18T13:42:59.041Z,26.18
2019-05-18T13:45:29.616Z,26.16
2019-05-18T13:48:00.300Z,26.10
2019-05-18T13:50:30.715Z,26.06
2019-05-18T13:53:02.553Z,26.00
2019-05-18T13:55:32.822Z,25.89
2019-05-18T13:58:03.143Z,25.78
2019-05-18T14:00:33.450Z,25.68
2019-05-18T14:03:04.301Z,25.51
2019-05-18T14:05:34.957Z,25.37
2019-05-18T14:08:05.280Z,25.22
2019-05-18T14:10:35.686Z,25.10
2019-05-18T14:13:05.869Z,24.92
2019-05-18T14:15:36.110Z,24.71
2019-05-18T14:18:06.702Z,24.59
2019-05-18T14:20:37.468Z,24.65
2019-05-18T14:23:08.778Z,24.88
2019-05-18T14:25:42.545Z,25.13
2019-05-18T14:28:12.845Z,25.41
2019-05-18T14:30:43.065Z,25.72
2019-05-18T14:33:13.307Z,25.90
2019-05-18T14:35:43.880Z,26.09
2019-05-18T14:38:14.220Z,26.14
2019-05-18T14:40:45.032Z,26.11
2019-05-18T14:43:16.068Z,25.97
2019-05-18T14:45:49.191Z,25.67
2019-05-18T14:48:19.814Z,25.45
2019-05-18T14:50:52.924Z,25.38
2019-05-18T14:53:23.325Z,25.44
2019-05-18T14:59:31.860Z,25.72
2019-05-18T15:02:01.695Z,26.00
2019-05-18T15:04:32.509Z,26.24
2019-05-18T15:07:25.569Z,26.30
2019-05-18T15:09:56.420Z,26.44
2019-05-18T15:12:27.273Z,26.48
2019-05-18T15:14:57.585Z,26.37
2019-05-18T15:17:28.163Z,26.18
2019-05-18T15:19:58.452Z,25.60
2019-05-18T15:22:28.853Z,25.08
2019-05-18T15:25:00.369Z,24.49
2019-05-18T15:27:30.708Z,23.96
2019-05-18T15:30:01.274Z,23.50
2019-05-18T15:32:32.101Z,23.18
2019-05-18T15:35:02.513Z,22.87
2019-05-18T15:37:36.093Z,22.62
2019-05-18T15:40:08.764Z,22.45
2019-05-18T15:42:39.327Z,22.22
2019-05-18T15:45:10.271Z,22.13
2019-05-18T15:47:40.703Z,22.12
2019-05-18T15:50:12.028Z,22.00
2019-05-18T15:52:42.372Z,21.97
2019-05-18T15:55:14.011Z,21.94
2019-05-18T15:57:44.459Z,22.04
2019-05-18T16:00:17.103Z,22.14
2019-05-18T16:02:49.456Z,22.26
2019-05-18T16:05:20.166Z,22.33
2019-05-18T16:07:50.720Z,22.44
2019-05-18T16:10:21.969Z,22.50
2019-05-18T16:12:52.349Z,22.61
2019-05-18T16:15:23.218Z,22.60
2019-05-18T16:17:53.862Z,22.60
2019-05-18T16:20:24.683Z,22.50
2019-05-18T16:22:55.071Z,22.37
2019-05-18T16:25:25.830Z,22.23
2019-05-18T16:28:13.529Z,22.12
2019-05-18T16:30:45.291Z,22.00
2019-05-18T16:33:15.845Z,21.90
2019-05-18T16:35:46.210Z,21.84
2019-05-18T16:38:17.082Z,21.66
2019-05-18T16:40:47.754Z,21.52
2019-05-18T16:43:20.261Z,21.45
2019-05-18T16:45:51.103Z,21.41
2019-05-18T16:48:24.344Z,21.32
2019-05-18T16:50:54.726Z,21.22
2019-05-18T16:53:25.191Z,21.13
2019-05-18T16:55:55.643Z,21.08
2019-05-18T16:58:26.008Z,21.05
2019-05-18T17:00:56.783Z,20.90
2019-05-18T17:03:27.433Z,20.81
2019-05-18T17:06:01.140Z,20.76
2019-05-18T17:08:31.522Z,20.69
2019-05-18T17:11:02.217Z,20.62
2019-05-18T17:13:32.923Z,20.66
2019-05-18T17:16:03.298Z,20.58
2019-05-18T17:18:34.533Z,20.54
2019-05-18T17:21:05.840Z,20.48
2019-05-18T17:23:36.206Z,20.41
2019-05-18T17:26:06.809Z,20.30
2019-05-18T17:28:37.493Z,20.20
2019-05-18T17:31:08.238Z,20.12
2019-05-18T17:33:40.093Z,20.09
2019-05-18T17:36:10.743Z,20.10
2019-05-18T17:38:41.418Z,19.94
2019-05-18T17:41:12.171Z,19.90
2019-05-18T17:43:42.557Z,19.86
2019-05-18T17:46:14.760Z,19.90
2019-05-18T17:48:45.169Z,19.81
2019-05-18T17:51:16.334Z,19.75
2019-05-18T17:53:46.969Z,19.68
2019-05-18T17:56:17.742Z,19.65
2019-05-18T17:58:48.243Z,19.57
2019-05-18T18:01:20.122Z,19.54
2019-05-18T18:03:50.451Z,19.49
2019-05-18T18:06:20.743Z,19.55
2019-05-18T18:08:51.114Z,19.44
2019-05-18T18:11:21.392Z,19.44
2019-05-18T18:13:51.662Z,19.33
2019-05-18T18:16:23.479Z,19.30
2019-05-18T18:18:54.354Z,19.32
2019-05-18T18:21:25.055Z,19.21
2019-05-18T18:23:58.874Z,19.18
2019-05-18T18:26:29.720Z,19.08
2019-05-18T18:29:04.522Z,19.05
2019-05-18T18:31:34.852Z,19.03
2019-05-18T18:34:09.504Z,19.09
2019-05-18T18:36:43.049Z,18.96
2019-05-18T18:39:16.493Z,18.92
2019-05-18T18:41:53.358Z,18.91
2019-05-18T18:44:24.025Z,18.79
2019-05-18T18:46:54.650Z,18.63
2019-05-18T18:49:27.008Z,18.51
2019-05-18T18:51:57.833Z,18.45
2019-05-18T18:54:28.533Z,18.39
2019-05-18T18:56:58.951Z,18.37
2019-05-18T18:59:29.366Z,18.27
2019-05-18T19:02:00.579Z,18.27
2019-05-18T19:04:30.881Z,18.21
2019-05-18T19:07:01.185Z,18.20
2019-05-18T19:09:31.427Z,18.15
2019-05-18T19:12:03.195Z,17.55
2019-05-18T19:14:33.764Z,18.24
2019-05-18T19:17:04.159Z,18.22
2019-05-18T19:19:34.786Z,18.22
2019-05-18T19:22:05.428Z,18.21
2019-05-18T19:24:36.150Z,18.25
2019-05-18T19:27:06.515Z,18.23
2019-05-18T19:29:37.140Z,18.19
2019-05-18T19:32:07.440Z,18.12
2019-05-18T19:34:39.214Z,18.06
2019-05-18T19:37:09.819Z,18.09
2019-05-18T19:39:40.062Z,18.05
2019-05-18T19:42:10.460Z,18.08
2019-05-18T19:44:40.891Z,17.95
2019-05-18T19:47:12.989Z,17.81
2019-05-18T19:49:50.166Z,17.68
2019-05-18T19:52:20.870Z,17.54
2019-05-18T19:54:53.856Z,17.38
2019-05-18T19:57:24.120Z,17.27
2019-05-18T19:59:54.374Z,17.16
2019-05-18T20:02:24.606Z,17.05
2019-05-18T20:05:06.543Z,16.97
2019-05-18T20:07:26.773Z,16.89
2019-05-18T20:09:58.932Z,16.88
2019-05-18T20:12:29.630Z,16.90
2019-05-18T20:15:00.266Z,16.92
2019-05-18T20:17:33.564Z,16.88
2019-05-18T20:20:08.940Z,16.82
2019-05-18T20:22:39.895Z,16.86
2019-05-18T20:25:12.436Z,16.81
2019-05-18T20:27:42.986Z,16.84
2019-05-18T20:30:14.192Z,16.92
2019-05-18T20:32:45.040Z,16.90
2019-05-18T20:35:16.002Z,16.96
2019-05-18T20:37:46.707Z,16.88
2019-05-18T20:40:17.421Z,16.87
2019-05-18T20:42:48.288Z,16.87
2019-05-18T20:45:19.770Z,16.90
2019-05-18T20:47:50.475Z,16.89
2019-05-18T20:50:22.641Z,16.99
2019-05-18T20:52:52.923Z,17.00
2019-05-18T20:55:23.176Z,17.01
2019-05-18T20:57:53.791Z,16.94
2019-05-18T21:00:27.236Z,16.93
2019-05-18T21:02:57.908Z,16.94
2019-05-18T21:05:31.441Z,16.91
2019-05-18T21:08:01.767Z,16.90
2019-05-18T21:10:34.096Z,16.93
2019-05-18T21:13:06.052Z,16.91
2019-05-18T21:15:42.019Z,16.89
2019-05-18T21:18:12.261Z,16.96
2019-05-18T21:20:43.378Z,16.96
2019-05-18T21:23:13.889Z,16.95
2019-05-18T21:25:45.789Z,16.86
2019-05-18T21:28:16.529Z,16.84
2019-05-18T21:30:47.209Z,16.79
2019-05-18T21:33:17.772Z,16.81
2019-05-18T21:35:48.089Z,16.78
2019-05-18T21:38:18.465Z,16.70
2019-05-18T21:40:49.151Z,16.65
2019-05-18T21:43:19.508Z,16.66
2019-05-18T21:45:50.167Z,16.59
2019-05-18T21:48:20.810Z,16.55
2019-05-18T21:50:51.105Z,16.40
2019-05-18T21:53:21.703Z,16.21
2019-05-18T21:55:52.006Z,16.17
2019-05-18T21:58:22.602Z,16.13
2019-05-18T22:00:53.040Z,16.03
2019-05-18T22:03:23.380Z,15.95
2019-05-18T22:05:53.648Z,15.95
2019-05-18T22:08:26.936Z,15.94
2019-05-18T22:10:57.221Z,15.84
2019-05-18T22:13:27.830Z,15.75
2019-05-18T22:15:58.503Z,15.69
2019-05-18T22:18:29.095Z,15.63
2019-05-18T22:20:59.792Z,15.58
2019-05-18T22:23:30.504Z,15.55
2019-05-18T22:26:01.174Z,15.59
2019-05-18T22:28:31.893Z,15.57
2019-05-18T22:31:02.210Z,15.55
2019-05-18T22:33:32.956Z,15.59
2019-05-18T22:36:03.671Z,15.60
2019-05-18T22:38:34.336Z,15.61
2019-05-18T22:41:05.069Z,15.57
2019-05-18T22:43:35.397Z,15.55
2019-05-18T22:46:06.089Z,15.52
2019-05-18T22:48:41.456Z,15.47
2019-05-18T22:51:09.726Z,15.44
2019-05-18T22:53:40.151Z,15.38
2019-05-18T22:56:10.381Z,15.33
2019-05-18T22:58:40.672Z,15.29
2019-05-18T23:01:11.016Z,15.26
2019-05-18T23:03:41.869Z,15.25
2019-05-18T23:06:13.292Z,15.25
2019-05-18T23:08:43.956Z,15.27
2019-05-18T23:11:14.260Z,15.29
2019-05-18T23:13:44.790Z,15.34
2019-05-18T23:16:16.619Z,15.39
2019-05-18T23:18:56.507Z,15.39
2019-05-18T23:21:20.617Z,15.37
2019-05-18T23:23:51.629Z,15.45
2019-05-18T23:26:21.953Z,15.48
2019-05-18T23:28:52.576Z,15.50
2019-05-18T23:31:22.900Z,15.50
2019-05-18T23:33:53.503Z,15.51
2019-05-18T23:36:23.811Z,15.53
2019-05-18T23:38:54.434Z,15.52
2019-05-18T23:41:25.093Z,15.51
2019-05-18T23:43:55.801Z,15.50
2019-05-18T23:46:26.197Z,15.54
2019-05-18T23:49:08.713Z,15.54
2019-05-18T23:51:28.752Z,15.54
2019-05-18T23:53:59.066Z,15.53
2019-05-18T23:56:29.650Z,15.53
2019-05-18T23:58:59.975Z,15.54
